createdAt,value
2023-05-20T00:00:22.026Z,14.63
2023-05-20T00:01:22.006Z,14.66
2023-05-20T00:02:22.126Z,14.66
2023-05-20T00:03:22.104Z,14.63
2023-05-20T00:04:22.011Z,14.55
2023-05-20T00:05:21.992Z,14.62
2023-05-20T00:06:21.958Z,14.58
2023-05-20T00:07:22.015Z,14.58
2023-05-20T00:08:21.920Z,14.53
2023-05-20T00:09:21.917Z,14.47
2023-05-20T00:10:21.953Z,14.45
2023-05-20T00:11:21.885Z,14.44
2023-05-20T00:12:21.956Z,14.48
2023-05-20T00:13:21.859Z,14.45
2023-05-20T00:14:21.890Z,14.36
2023-05-20T00:15:21.855Z,14.44
2023-05-20T00:16:21.893Z,14.45
2023-05-20T00:17:21.818Z,14.36
2023-05-20T00:18:21.824Z,14.37
2023-05-20T00:19:21.835Z,14.35
2023-05-20T00:20:21.779Z,14.37
2023-05-20T00:21:21.777Z,14.37
2023-05-20T00:22:21.798Z,14.43
2023-05-20T00:23:21.807Z,14.35
2023-05-20T00:24:21.781Z,14.44
2023-05-20T00:25:21.732Z,14.33
2023-05-20T00:26:21.715Z,14.33
2023-05-20T00:27:21.700Z,14.30
2023-05-20T00:28:21.742Z,14.35
2023-05-20T00:29:21.695Z,14.18
2023-05-20T00:30:21.710Z,14.28
2023-05-20T00:31:21.743Z,14.22
2023-05-20T00:32:21.705Z,14.22
2023-05-20T00:33:21.634Z,14.26
2023-05-20T00:34:21.656Z,14.23
2023-05-20T00:35:21.614Z,14.22
2023-05-20T00:36:21.622Z,14.23
2023-05-20T00:37:21.585Z,14.23
2023-05-20T00:38:21.678Z,14.17
2023-05-20T00:39:21.567Z,14.15
2023-05-20T00:40:21.630Z,14.08
2023-05-20T00:41:21.548Z,14.12
2023-05-20T00:42:21.537Z,14.11
2023-05-20T00:43:21.514Z,14.03
2023-05-20T00:44:21.533Z,14.05
2023-05-20T00:45:21.525Z,14.05
2023-05-20T00:46:21.576Z,13.99
2023-05-20T00:47:21.570Z,14.03
2023-05-20T00:48:21.488Z,13.89
2023-05-20T00:49:21.454Z,13.95
2023-05-20T00:50:21.448Z,13.99
2023-05-20T00:51:21.505Z,13.89
2023-05-20T00:52:21.443Z,13.90
2023-05-20T00:53:21.458Z,13.86
2023-05-20T00:54:21.420Z,13.85
2023-05-20T00:55:21.388Z,13.78
2023-05-20T00:56:21.372Z,13.87
2023-05-20T00:57:21.361Z,13.83
2023-05-20T00:58:21.409Z,13.89
2023-05-20T00:59:21.335Z,13.86
2023-05-20T01:00:21.353Z,13.87
2023-05-20T01:01:21.364Z,13.86
2023-05-20T01:02:21.378Z,13.81
2023-05-20T01:03:22.541Z,13.85
2023-05-20T01:04:21.301Z,13.75
2023-05-20T01:05:21.288Z,13.83
2023-05-20T01:06:21.277Z,13.75
2023-05-20T01:07:21.248Z,13.65
2023-05-20T01:08:21.240Z,13.68
2023-05-20T01:09:21.256Z,13.68
2023-05-20T01:10:21.214Z,13.67
2023-05-20T01:11:21.193Z,13.70
2023-05-20T01:12:21.229Z,13.67
2023-05-20T01:13:21.189Z,13.60
2023-05-20T01:14:21.171Z,13.63
2023-05-20T01:15:21.187Z,13.62
2023-05-20T01:16:21.264Z,13.56
2023-05-20T01:17:21.180Z,13.50
2023-05-20T01:18:21.114Z,13.57
2023-05-20T01:19:21.220Z,13.52
2023-05-20T01:20:21.115Z,13.49
2023-05-20T01:21:21.118Z,13.52
2023-05-20T01:22:21.087Z,13.46
2023-05-20T01:23:21.090Z,13.35
2023-05-20T01:24:21.061Z,13.42
2023-05-20T01:25:21.051Z,13.38
2023-05-20T01:26:21.025Z,13.41
2023-05-20T01:27:21.059Z,13.39
2023-05-20T01:28:21.022Z,13.27
2023-05-20T01:29:21.020Z,13.33
2023-05-20T01:30:21.008Z,13.27
2023-05-20T01:31:21.043Z,13.23
2023-05-20T01:32:20.985Z,13.28
2023-05-20T01:33:20.998Z,13.33
2023-05-20T01:34:20.945Z,13.16
2023-05-20T01:35:20.932Z,13.13
2023-05-20T01:36:20.911Z,13.19
2023-05-20T01:37:20.898Z,13.18
2023-05-20T01:38:20.887Z,13.19
2023-05-20T01:39:20.955Z,13.15
2023-05-20T01:40:20.864Z,13.18
2023-05-20T01:41:20.990Z,13.11
2023-05-20T01:42:20.862Z,13.13
2023-05-20T01:43:20.834Z,13.12
2023-05-20T01:44:20.816Z,13.13
2023-05-20T01:45:20.852Z,13.13
2023-05-20T01:46:20.833Z,13.05
2023-05-20T01:47:20.811Z,13.16
2023-05-20T01:48:20.831Z,13.16
2023-05-20T01:49:20.763Z,13.16
2023-05-20T01:50:20.750Z,13.13
2023-05-20T01:51:20.805Z,13.15
2023-05-20T01:52:20.727Z,13.16
2023-05-20T01:53:20.743Z,13.19
2023-05-20T01:54:20.701Z,13.22
2023-05-20T01:55:20.713Z,13.13
2023-05-20T01:56:20.683Z,13.23
2023-05-20T01:57:20.684Z,13.30
2023-05-20T01:58:20.662Z,13.28
2023-05-20T01:59:20.758Z,13.28
2023-05-20T02:00:20.655Z,13.30
2023-05-20T02:01:20.814Z,13.37
2023-05-20T02:02:20.759Z,13.30
2023-05-20T02:03:20.680Z,13.41
2023-05-20T02:04:20.619Z,13.41
2023-05-20T02:05:20.615Z,13.44
2023-05-20T02:06:20.675Z,13.41
2023-05-20T02:07:20.590Z,13.47
2023-05-20T02:08:20.555Z,13.39
2023-05-20T02:09:20.573Z,13.44
2023-05-20T02:10:20.519Z,13.44
2023-05-20T02:11:20.507Z,13.44
2023-05-20T02:12:20.524Z,13.50
2023-05-20T02:13:20.531Z,13.53
2023-05-20T02:14:20.479Z,13.56
2023-05-20T02:15:20.531Z,13.62
2023-05-20T02:16:20.522Z,13.57
2023-05-20T02:17:20.445Z,13.62
2023-05-20T02:18:20.430Z,13.59
2023-05-20T02:19:20.530Z,13.60
2023-05-20T02:20:20.471Z,13.63
2023-05-20T02:21:20.445Z,13.62
2023-05-20T02:22:20.387Z,13.59
2023-05-20T02:23:20.376Z,13.63
2023-05-20T02:24:20.365Z,13.71
2023-05-20T02:25:20.357Z,13.71
2023-05-20T02:26:20.345Z,13.62
2023-05-20T02:27:20.351Z,13.67
2023-05-20T02:28:20.323Z,13.77
2023-05-20T02:29:20.374Z,13.68
2023-05-20T02:30:20.331Z,13.65
2023-05-20T02:31:20.287Z,13.68
2023-05-20T02:32:20.313Z,13.70
2023-05-20T02:33:20.365Z,13.72
2023-05-20T02:34:20.356Z,13.74
2023-05-20T02:35:20.248Z,13.70
2023-05-20T02:36:20.255Z,13.71
2023-05-20T02:37:20.218Z,13.72
2023-05-20T02:38:20.210Z,13.72
2023-05-20T02:39:20.263Z,13.65
2023-05-20T02:40:20.186Z,13.70
2023-05-20T02:41:20.179Z,13.75
2023-05-20T02:42:20.193Z,13.72
2023-05-20T02:43:20.181Z,13.71
2023-05-20T02:44:20.160Z,13.74
2023-05-20T02:45:20.180Z,13.72
2023-05-20T02:46:20.163Z,13.72
2023-05-20T02:47:20.109Z,13.68
2023-05-20T02:48:20.087Z,13.75
2023-05-20T02:49:20.085Z,13.75
2023-05-20T02:50:20.092Z,13.72
2023-05-20T02:51:20.094Z,13.68
2023-05-20T02:52:20.099Z,13.81
2023-05-20T02:53:20.074Z,13.74
2023-05-20T02:54:20.037Z,13.79
2023-05-20T02:55:20.027Z,13.79
2023-05-20T02:56:20.005Z,13.74
2023-05-20T02:57:20.100Z,13.75
2023-05-20T02:58:19.981Z,13.78
2023-05-20T02:59:19.977Z,13.74
2023-05-20T03:00:19.953Z,13.78
2023-05-20T03:01:20.045Z,13.85
2023-05-20T03:02:19.928Z,13.79
2023-05-20T03:03:19.967Z,13.85
2023-05-20T03:04:19.976Z,13.86
2023-05-20T03:05:19.892Z,13.85
2023-05-20T03:06:19.885Z,13.83
2023-05-20T03:07:19.911Z,13.89
2023-05-20T03:08:19.887Z,13.86
2023-05-20T03:09:19.880Z,13.85
2023-05-20T03:10:19.839Z,13.86
2023-05-20T03:11:19.871Z,13.85
2023-05-20T03:12:19.839Z,13.96
2023-05-20T03:13:19.812Z,13.83
2023-05-20T03:14:19.889Z,13.85
2023-05-20T03:15:19.816Z,13.86
2023-05-20T03:16:19.837Z,13.87
2023-05-20T03:17:19.840Z,13.92
2023-05-20T03:18:19.754Z,13.86
2023-05-20T03:19:19.817Z,13.93
2023-05-20T03:20:19.725Z,13.92
2023-05-20T03:21:19.764Z,13.92
2023-05-20T03:22:19.712Z,13.93
2023-05-20T03:23:19.694Z,13.90
2023-05-20T03:24:19.709Z,13.90
2023-05-20T03:25:19.673Z,13.97
2023-05-20T03:26:19.663Z,13.90
2023-05-20T03:27:19.668Z,13.90
2023-05-20T03:28:19.632Z,13.93
2023-05-20T03:29:19.643Z,13.96
2023-05-20T03:30:19.635Z,13.96
2023-05-20T03:31:19.666Z,14.10
2023-05-20T03:32:19.639Z,13.90
2023-05-20T03:33:19.612Z,13.99
2023-05-20T03:34:19.566Z,14.03
2023-05-20T03:35:19.558Z,13.97
2023-05-20T03:36:19.544Z,14.07
2023-05-20T03:37:19.544Z,14.05
2023-05-20T03:38:19.526Z,14.00
2023-05-20T03:39:19.545Z,14.00
2023-05-20T03:40:19.523Z,14.04
2023-05-20T03:41:19.550Z,14.00
2023-05-20T03:42:19.477Z,14.07
2023-05-20T03:43:19.468Z,14.00
2023-05-20T03:44:19.470Z,14.04
2023-05-20T03:45:19.461Z,14.00
2023-05-20T03:46:19.469Z,13.99
2023-05-20T03:47:19.481Z,13.99
2023-05-20T03:48:19.416Z,14.11
2023-05-20T03:49:19.401Z,14.03
2023-05-20T03:50:19.403Z,13.99
2023-05-20T03:51:19.433Z,14.12
2023-05-20T03:52:19.382Z,14.10
2023-05-20T03:53:19.362Z,14.00
2023-05-20T03:54:19.339Z,14.05
2023-05-20T03:55:19.330Z,13.99
2023-05-20T03:56:19.359Z,13.99
2023-05-20T03:57:19.375Z,14.03
2023-05-20T03:58:19.300Z,14.05
2023-05-20T03:59:19.294Z,14.05
2023-05-20T04:00:19.276Z,14.15
2023-05-20T04:01:19.265Z,14.05
2023-05-20T04:02:19.348Z,14.05
2023-05-20T04:03:19.356Z,14.08
2023-05-20T04:04:19.352Z,14.03
2023-05-20T04:05:19.214Z,13.99
2023-05-20T04:06:19.214Z,14.07
2023-05-20T04:07:19.210Z,14.12
2023-05-20T04:08:19.187Z,14.07
2023-05-20T04:09:19.230Z,14.10
2023-05-20T04:10:19.197Z,14.11
2023-05-20T04:11:19.174Z,14.20
2023-05-20T04:12:19.161Z,14.08
2023-05-20T04:13:19.126Z,14.10
2023-05-20T04:14:19.126Z,14.11
2023-05-20T04:15:19.141Z,14.11
2023-05-20T04:16:19.150Z,14.17
2023-05-20T04:17:19.084Z,14.18
2023-05-20T04:18:19.130Z,14.23
2023-05-20T04:19:19.120Z,14.15
2023-05-20T04:20:19.069Z,14.23
2023-05-20T04:21:19.083Z,14.26
2023-05-20T04:22:19.052Z,14.18
2023-05-20T04:23:19.023Z,14.28
2023-05-20T04:24:19.029Z,14.22
2023-05-20T04:25:18.996Z,14.35
2023-05-20T04:26:18.973Z,14.30
2023-05-20T04:27:19.033Z,14.35
2023-05-20T04:28:18.985Z,14.40
2023-05-20T04:29:18.952Z,14.37
2023-05-20T04:30:18.938Z,14.33
2023-05-20T04:31:18.944Z,14.36
2023-05-20T04:32:19.092Z,14.51
2023-05-20T04:33:18.948Z,14.58
2023-05-20T04:34:18.891Z,14.54
2023-05-20T04:35:18.888Z,14.59
2023-05-20T04:36:18.861Z,14.65
2023-05-20T04:37:18.854Z,14.62
2023-05-20T04:38:18.856Z,14.69
2023-05-20T04:39:18.887Z,14.77
2023-05-20T04:40:18.835Z,14.78
2023-05-20T04:41:18.821Z,14.89
2023-05-20T04:42:18.931Z,14.92
2023-05-20T04:43:18.787Z,14.85
2023-05-20T04:44:18.802Z,14.91
2023-05-20T04:45:18.808Z,15.00
2023-05-20T04:46:18.831Z,14.97
2023-05-20T04:47:18.760Z,15.09
2023-05-20T04:48:18.731Z,15.06
2023-05-20T04:49:18.728Z,15.21
2023-05-20T04:50:18.729Z,15.19
2023-05-20T04:51:18.742Z,15.35
2023-05-20T04:52:18.678Z,15.22
2023-05-20T04:53:18.752Z,15.25
2023-05-20T04:54:18.660Z,15.28
2023-05-20T04:55:18.658Z,15.29
2023-05-20T04:56:18.646Z,15.40
2023-05-20T04:57:18.643Z,15.35
2023-05-20T04:58:18.616Z,15.33
2023-05-20T04:59:18.607Z,15.54
2023-05-20T05:00:18.624Z,15.46
2023-05-20T05:01:18.635Z,15.59
2023-05-20T05:02:18.570Z,15.58
2023-05-20T05:03:18.590Z,15.61
2023-05-20T05:04:18.608Z,15.61
2023-05-20T05:05:18.536Z,15.62
2023-05-20T05:06:18.541Z,15.77
2023-05-20T05:07:18.525Z,15.76
2023-05-20T05:08:18.502Z,15.84
2023-05-20T05:09:18.511Z,15.92
2023-05-20T05:10:18.493Z,16.00
2023-05-20T05:11:18.473Z,16.08
2023-05-20T05:12:18.497Z,16.15
2023-05-20T05:13:18.440Z,16.20
2023-05-20T05:14:18.436Z,16.24
2023-05-20T05:15:18.490Z,16.29
2023-05-20T05:16:18.534Z,16.32
2023-05-20T05:17:18.409Z,16.39
2023-05-20T05:18:18.400Z,16.47
2023-05-20T05:19:18.464Z,16.49
2023-05-20T05:20:18.388Z,16.56
2023-05-20T05:21:18.386Z,16.75
2023-05-20T05:22:18.366Z,16.64
2023-05-20T05:23:18.334Z,16.72
2023-05-20T05:24:18.328Z,16.87
2023-05-20T05:25:18.345Z,16.90
2023-05-20T05:26:18.302Z,17.01
2023-05-20T05:27:18.335Z,17.09
2023-05-20T05:28:18.275Z,17.09
2023-05-20T05:29:18.270Z,17.12
2023-05-20T05:30:18.273Z,17.14
2023-05-20T05:31:18.238Z,17.23
2023-05-20T05:32:18.414Z,17.29
2023-05-20T05:33:18.306Z,17.36
2023-05-20T05:34:25.974Z,17.41
2023-05-20T05:35:18.196Z,17.46
2023-05-20T05:36:18.214Z,17.45
2023-05-20T05:37:18.180Z,17.41
2023-05-20T05:38:25.519Z,17.38
2023-05-20T05:39:18.150Z,17.39
2023-05-20T05:40:18.145Z,17.39
2023-05-20T05:41:18.164Z,17.38
2023-05-20T05:42:18.119Z,17.45
2023-05-20T05:43:18.117Z,17.41
2023-05-20T05:44:18.149Z,17.46
2023-05-20T05:45:18.078Z,17.49
2023-05-20T05:46:18.142Z,17.46
2023-05-20T05:47:18.080Z,17.39
2023-05-20T05:48:18.075Z,17.54
2023-05-20T05:49:18.037Z,17.48
2023-05-20T05:50:18.054Z,17.56
2023-05-20T05:51:18.043Z,17.59
2023-05-20T05:52:18.013Z,17.57
2023-05-20T05:53:18.035Z,17.54
2023-05-20T05:54:17.992Z,17.56
2023-05-20T05:55:17.986Z,17.56
2023-05-20T05:56:18.003Z,17.52
2023-05-20T05:57:17.940Z,17.51
2023-05-20T05:58:17.950Z,17.56
2023-05-20T05:59:17.923Z,17.48
2023-05-20T06:00:17.973Z,17.54
2023-05-20T06:01:17.920Z,17.56
2023-05-20T06:02:18.070Z,17.52
2023-05-20T06:03:17.935Z,17.60
2023-05-20T06:04:17.929Z,17.63
2023-05-20T06:05:17.861Z,17.54
2023-05-20T06:06:17.900Z,17.57
2023-05-20T06:07:17.836Z,17.54
2023-05-20T06:08:17.864Z,17.63
2023-05-20T06:09:17.805Z,17.54
2023-05-20T06:10:17.800Z,17.51
2023-05-20T06:11:17.797Z,17.49
2023-05-20T06:12:17.776Z,17.57
2023-05-20T06:13:17.781Z,17.59
2023-05-20T06:14:17.769Z,17.54
2023-05-20T06:15:17.798Z,17.49
2023-05-20T06:16:17.788Z,17.65
2023-05-20T06:17:17.768Z,17.67
2023-05-20T06:18:17.713Z,17.74
2023-05-20T06:19:17.928Z,17.71
2023-05-20T06:20:17.734Z,17.80
2023-05-20T06:21:17.681Z,17.80
2023-05-20T06:22:17.667Z,17.87
2023-05-20T06:23:17.648Z,17.90
2023-05-20T06:24:17.657Z,17.95
2023-05-20T06:25:17.649Z,18.04
2023-05-20T06:26:17.651Z,18.08
2023-05-20T06:27:17.602Z,18.15
2023-05-20T06:28:17.620Z,18.18
2023-05-20T06:29:17.573Z,18.25
2023-05-20T06:30:17.579Z,18.28
2023-05-20T06:31:17.599Z,18.43
2023-05-20T06:32:17.582Z,18.40
2023-05-20T06:33:17.580Z,18.50
2023-05-20T06:34:17.522Z,18.44
2023-05-20T06:35:17.526Z,18.53
2023-05-20T06:36:17.569Z,18.59
2023-05-20T06:37:17.496Z,18.52
2023-05-20T06:38:17.609Z,18.70
2023-05-20T06:39:17.482Z,18.62
2023-05-20T06:40:17.456Z,18.75
2023-05-20T06:41:17.439Z,18.68
2023-05-20T06:42:17.453Z,18.75
2023-05-20T06:43:17.559Z,18.78
2023-05-20T06:44:17.457Z,18.83
2023-05-20T06:45:17.406Z,18.88
2023-05-20T06:46:17.418Z,18.88
2023-05-20T06:47:17.377Z,18.86
2023-05-20T06:48:17.359Z,18.93
2023-05-20T06:49:17.350Z,19.04
2023-05-20T06:50:17.390Z,19.00
2023-05-20T06:51:17.337Z,18.99
2023-05-20T06:52:17.364Z,19.16
2023-05-20T06:53:17.324Z,19.19
2023-05-20T06:54:17.300Z,19.24
2023-05-20T06:55:17.306Z,19.29
2023-05-20T06:56:17.374Z,19.39
2023-05-20T06:57:17.263Z,19.37
2023-05-20T06:58:17.259Z,19.29
2023-05-20T06:59:17.258Z,19.37
2023-05-20T07:00:17.226Z,19.41
2023-05-20T07:01:18.377Z,19.40
2023-05-20T07:02:17.213Z,19.48
2023-05-20T07:03:17.250Z,19.44
2023-05-20T07:04:17.261Z,19.52
2023-05-20T07:05:17.174Z,19.49
2023-05-20T07:06:17.165Z,19.66
2023-05-20T07:07:17.524Z,19.62
2023-05-20T07:08:17.181Z,19.70
2023-05-20T07:09:17.129Z,19.70
2023-05-20T07:10:17.111Z,19.74
2023-05-20T07:11:17.129Z,19.85
2023-05-20T07:12:17.090Z,19.89
2023-05-20T07:13:17.087Z,19.94
2023-05-20T07:14:17.114Z,19.86
2023-05-20T07:15:17.060Z,20.00
2023-05-20T07:16:17.150Z,20.10
2023-05-20T07:17:18.019Z,20.07
2023-05-20T07:18:17.061Z,20.25
2023-05-20T07:19:17.039Z,20.28
2023-05-20T07:20:17.029Z,20.34
2023-05-20T07:21:16.994Z,20.48
2023-05-20T07:22:16.993Z,20.48
2023-05-20T07:23:16.959Z,20.56
2023-05-20T07:24:16.978Z,20.59
2023-05-20T07:25:16.953Z,20.65
2023-05-20T07:26:17.013Z,20.75
2023-05-20T07:27:16.954Z,20.85
2023-05-20T07:28:16.901Z,20.87
2023-05-20T07:29:16.896Z,20.87
2023-05-20T07:30:16.891Z,20.90
2023-05-20T07:31:16.917Z,20.96
2023-05-20T07:32:16.885Z,21.03
2023-05-20T07:33:16.852Z,21.11
2023-05-20T07:34:16.840Z,21.21
2023-05-20T07:35:16.850Z,21.14
2023-05-20T07:36:16.812Z,21.32
2023-05-20T07:37:16.852Z,21.33
2023-05-20T07:38:16.832Z,21.35
2023-05-20T07:39:16.787Z,21.40
2023-05-20T07:40:16.837Z,21.50
2023-05-20T07:41:16.760Z,21.57
2023-05-20T07:42:16.777Z,21.60
2023-05-20T07:43:16.738Z,21.67
2023-05-20T07:44:16.784Z,21.72
2023-05-20T07:45:16.755Z,21.67
2023-05-20T07:46:19.362Z,21.82
2023-05-20T07:47:16.696Z,21.79
2023-05-20T07:48:16.692Z,21.79
2023-05-20T07:49:16.713Z,21.80
2023-05-20T07:50:16.693Z,21.99
2023-05-20T07:51:16.657Z,22.00
2023-05-20T07:52:16.643Z,22.14
2023-05-20T07:53:16.652Z,22.15
2023-05-20T07:54:16.628Z,22.20
2023-05-20T07:55:16.631Z,22.30
2023-05-20T07:56:16.665Z,22.33
2023-05-20T07:57:16.581Z,22.32
2023-05-20T07:58:16.578Z,22.39
2023-05-20T07:59:16.564Z,22.48
2023-05-20T08:00:16.566Z,22.54
2023-05-20T08:01:16.738Z,22.57
2023-05-20T08:02:16.583Z,22.65
2023-05-20T08:03:16.580Z,22.70
2023-05-20T08:04:16.556Z,22.84
2023-05-20T08:05:16.493Z,22.80
2023-05-20T08:06:16.483Z,22.94
2023-05-20T08:07:16.475Z,22.96
2023-05-20T08:08:16.487Z,22.99
2023-05-20T08:09:16.444Z,23.09
2023-05-20T08:10:16.509Z,23.12
2023-05-20T08:11:16.448Z,23.20
2023-05-20T08:12:16.459Z,23.24
2023-05-20T08:13:16.436Z,23.24
2023-05-20T08:14:16.452Z,23.34
2023-05-20T08:15:16.373Z,23.51
2023-05-20T08:16:16.440Z,23.43
2023-05-20T08:17:16.405Z,23.55
2023-05-20T08:18:16.349Z,23.62
2023-05-20T08:19:16.406Z,23.71
2023-05-20T08:20:16.469Z,23.66
2023-05-20T08:21:16.331Z,23.71
2023-05-20T08:22:16.294Z,23.81
2023-05-20T08:23:16.289Z,23.77
2023-05-20T08:24:16.287Z,23.87
2023-05-20T08:25:16.282Z,23.88
2023-05-20T08:26:16.379Z,24.01
2023-05-20T08:27:16.239Z,24.01
2023-05-20T08:28:16.259Z,24.11
2023-05-20T08:29:16.226Z,24.11
2023-05-20T08:30:16.226Z,24.26
2023-05-20T08:31:16.270Z,24.23
2023-05-20T08:32:16.304Z,24.36
2023-05-20T08:33:16.180Z,24.39
2023-05-20T08:34:16.168Z,24.53
2023-05-20T08:35:16.188Z,24.57
2023-05-20T08:36:16.150Z,24.54
2023-05-20T08:37:16.129Z,24.66
2023-05-20T08:38:16.168Z,24.65
2023-05-20T08:39:16.160Z,24.69
2023-05-20T08:40:16.097Z,24.74
2023-05-20T08:41:16.101Z,24.76
2023-05-20T08:42:16.074Z,24.85
2023-05-20T08:43:16.094Z,24.89
2023-05-20T08:44:16.139Z,24.93
2023-05-20T08:45:16.044Z,24.96
2023-05-20T08:46:18.155Z,25.07
2023-05-20T08:47:16.018Z,25.14
2023-05-20T08:48:16.003Z,25.18
2023-05-20T08:49:15.999Z,25.14
2023-05-20T08:50:16.148Z,25.28
2023-05-20T08:51:15.985Z,25.25
2023-05-20T08:52:15.966Z,25.28
2023-05-20T08:53:15.955Z,25.23
2023-05-20T08:54:15.968Z,25.29
2023-05-20T08:55:15.964Z,25.32
2023-05-20T08:56:15.972Z,25.26
2023-05-20T08:57:15.914Z,25.32
2023-05-20T08:58:15.916Z,25.35
2023-05-20T08:59:15.892Z,25.44
2023-05-20T09:00:16.049Z,25.36
2023-05-20T09:01:15.932Z,25.43
2023-05-20T09:02:16.110Z,25.53
2023-05-20T09:03:15.866Z,25.63
2023-05-20T09:04:15.831Z,25.65
2023-05-20T09:05:15.850Z,25.65
2023-05-20T09:06:15.808Z,25.69
2023-05-20T09:07:15.820Z,25.72
2023-05-20T09:08:15.854Z,25.85
2023-05-20T09:09:15.803Z,25.91
2023-05-20T09:10:15.782Z,25.88
2023-05-20T09:11:15.757Z,25.91
2023-05-20T09:12:15.779Z,26.06
2023-05-20T09:13:15.738Z,26.07
2023-05-20T09:14:15.766Z,26.16
2023-05-20T09:15:15.706Z,26.29
2023-05-20T09:16:15.761Z,26.28
2023-05-20T09:17:15.684Z,26.31
2023-05-20T09:18:15.683Z,26.31
2023-05-20T09:19:15.724Z,26.40
2023-05-20T09:20:15.675Z,26.47
2023-05-20T09:21:15.647Z,26.51
2023-05-20T09:22:15.622Z,26.56
2023-05-20T09:23:15.619Z,26.60
2023-05-20T09:24:15.609Z,26.59
2023-05-20T09:25:15.632Z,26.62
2023-05-20T09:26:15.623Z,26.71
2023-05-20T09:27:15.567Z,26.65
2023-05-20T09:28:15.614Z,26.80
2023-05-20T09:29:15.578Z,26.75
2023-05-20T09:30:15.562Z,26.74
2023-05-20T09:31:15.674Z,26.78
2023-05-20T09:32:15.596Z,26.92
2023-05-20T09:33:15.525Z,26.92
2023-05-20T09:34:15.521Z,26.93
2023-05-20T09:35:15.484Z,26.97
2023-05-20T09:36:16.662Z,27.03
2023-05-20T09:37:15.483Z,27.07
2023-05-20T09:38:15.498Z,27.02
2023-05-20T09:39:15.435Z,27.14
2023-05-20T09:40:15.477Z,27.21
2023-05-20T09:41:15.505Z,27.26
2023-05-20T09:42:15.404Z,27.15
2023-05-20T09:43:15.391Z,27.17
2023-05-20T09:44:15.407Z,27.25
2023-05-20T09:45:15.458Z,27.27
2023-05-20T09:46:15.375Z,27.30
2023-05-20T09:47:15.345Z,27.40
2023-05-20T09:48:15.420Z,27.42
2023-05-20T09:49:15.334Z,27.51
2023-05-20T09:50:15.336Z,27.63
2023-05-20T09:51:15.326Z,27.75
2023-05-20T09:52:15.288Z,27.82
2023-05-20T09:53:15.290Z,27.93
2023-05-20T09:54:15.275Z,28.10
2023-05-20T09:55:15.266Z,28.15
2023-05-20T09:56:15.306Z,28.26
2023-05-20T09:57:15.255Z,28.57
2023-05-20T09:58:16.283Z,28.78
2023-05-20T09:59:15.230Z,28.93
2023-05-20T10:00:15.218Z,29.13
2023-05-20T10:01:15.283Z,29.31
2023-05-20T10:02:15.304Z,29.50
2023-05-20T10:03:15.257Z,29.65
2023-05-20T10:04:15.192Z,29.65
2023-05-20T10:05:15.157Z,29.76
2023-05-20T10:06:15.139Z,29.78
2023-05-20T10:07:15.134Z,29.81
2023-05-20T10:08:15.160Z,30.02
2023-05-20T10:09:15.118Z,30.05
2023-05-20T10:10:15.105Z,30.16
2023-05-20T10:11:15.123Z,30.23
2023-05-20T10:12:15.082Z,30.30
2023-05-20T10:13:15.083Z,30.40
2023-05-20T10:14:15.076Z,30.43
2023-05-20T10:15:15.051Z,30.37
2023-05-20T10:16:15.087Z,30.47
2023-05-20T10:17:15.033Z,30.48
2023-05-20T10:18:15.006Z,30.43
2023-05-20T10:19:15.024Z,30.34
2023-05-20T10:20:15.082Z,30.30
2023-05-20T10:21:14.980Z,30.21
2023-05-20T10:22:14.969Z,30.16
2023-05-20T10:23:14.956Z,30.16
2023-05-20T10:24:14.967Z,30.12
2023-05-20T10:25:14.937Z,30.13
2023-05-20T10:26:14.945Z,30.15
2023-05-20T10:27:14.917Z,30.16
2023-05-20T10:28:14.904Z,30.23
2023-05-20T10:29:14.899Z,30.19
2023-05-20T10:30:14.904Z,30.12
2023-05-20T10:31:14.869Z,30.12
2023-05-20T10:32:14.976Z,30.16
2023-05-20T10:33:14.878Z,30.16
2023-05-20T10:34:14.840Z,30.02
2023-05-20T10:35:14.866Z,30.03
2023-05-20T10:36:14.844Z,29.98
2023-05-20T10:37:14.794Z,29.91
2023-05-20T10:38:14.820Z,29.91
2023-05-20T10:39:14.778Z,29.93
2023-05-20T10:40:14.774Z,29.98
2023-05-20T10:41:14.766Z,29.97
2023-05-20T10:42:14.759Z,30.06
2023-05-20T10:43:14.760Z,30.00
2023-05-20T10:44:14.828Z,29.93
2023-05-20T10:45:14.711Z,29.95
2023-05-20T10:46:26.399Z,29.88
2023-05-20T10:47:24.853Z,29.76
2023-05-20T10:48:15.851Z,29.82
2023-05-20T10:49:14.763Z,29.68
2023-05-20T10:50:14.744Z,29.61
2023-05-20T10:51:14.664Z,29.61
2023-05-20T10:52:14.661Z,29.66
2023-05-20T10:53:29.335Z,29.59
2023-05-20T10:54:15.605Z,29.56
2023-05-20T10:55:14.610Z,29.50
2023-05-20T10:56:14.679Z,29.47
2023-05-20T10:57:14.595Z,29.35
2023-05-20T10:58:14.576Z,29.24
2023-05-20T10:59:14.590Z,29.14
2023-05-20T11:00:14.609Z,29.12
2023-05-20T11:01:14.599Z,29.08
2023-05-20T11:02:14.569Z,29.02
2023-05-20T11:03:14.585Z,28.93
2023-05-20T11:04:14.556Z,28.86
2023-05-20T11:05:14.503Z,28.85
2023-05-20T11:06:16.155Z,28.82
2023-05-20T11:07:14.473Z,28.84
2023-05-20T11:09:15.442Z,28.79
2023-05-20T11:10:14.462Z,28.84
2023-05-20T11:11:14.450Z,28.86
2023-05-20T11:12:15.642Z,28.86
2023-05-20T11:13:14.469Z,28.97
2023-05-20T11:14:14.474Z,28.91
2023-05-20T11:15:14.398Z,28.93
2023-05-20T11:16:14.407Z,28.94
2023-05-20T11:17:14.384Z,28.91
2023-05-20T11:18:15.510Z,28.93
2023-05-20T11:19:14.370Z,28.96
2023-05-20T11:20:14.419Z,28.91
2023-05-20T11:21:14.318Z,28.96
2023-05-20T11:22:14.301Z,28.93
2023-05-20T11:23:14.303Z,28.96
2023-05-20T11:24:14.329Z,28.91
2023-05-20T11:25:14.263Z,28.93
2023-05-20T11:26:14.322Z,28.97
2023-05-20T11:27:14.259Z,28.96
2023-05-20T11:28:14.385Z,29.01
2023-05-20T11:29:14.244Z,29.02
2023-05-20T11:30:14.217Z,29.01
2023-05-20T11:31:14.199Z,29.04
2023-05-20T11:32:14.241Z,28.98
2023-05-20T11:33:14.318Z,28.91
2023-05-20T11:34:14.171Z,29.02
2023-05-20T11:35:14.156Z,29.07
2023-05-20T11:36:26.894Z,29.05
2023-05-20T11:37:15.203Z,29.07
2023-05-20T11:38:14.140Z,29.07
2023-05-20T11:39:14.112Z,29.04
2023-05-20T11:40:14.168Z,29.04
2023-05-20T11:41:14.094Z,29.04
2023-05-20T11:42:14.079Z,29.04
2023-05-20T11:43:14.114Z,29.07
2023-05-20T11:44:14.068Z,29.08
2023-05-20T11:45:14.062Z,28.97
2023-05-20T11:46:14.077Z,29.13
2023-05-20T11:47:14.042Z,29.12
2023-05-20T11:48:14.075Z,29.08
2023-05-20T11:49:14.023Z,29.08
2023-05-20T11:50:13.989Z,29.12
2023-05-20T11:51:13.979Z,28.94
2023-05-20T11:52:13.968Z,28.89
2023-05-20T11:53:13.968Z,28.91
2023-05-20T11:54:13.950Z,28.82
2023-05-20T11:55:14.040Z,28.89
2023-05-20T11:56:13.942Z,28.96
2023-05-20T11:57:13.913Z,28.89
2023-05-20T11:58:13.896Z,28.96
2023-05-20T11:59:13.894Z,29.05
2023-05-20T12:00:13.897Z,29.24
2023-05-20T12:01:21.813Z,29.22
2023-05-20T12:02:16.051Z,29.24
2023-05-20T12:03:14.022Z,29.31
2023-05-20T12:04:14.093Z,29.34
2023-05-20T12:05:13.840Z,29.26
2023-05-20T12:06:13.836Z,29.17
2023-05-20T12:07:13.952Z,29.14
2023-05-20T12:08:13.785Z,29.13
2023-05-20T12:09:13.779Z,29.02
2023-05-20T12:10:13.820Z,28.93
2023-05-20T12:11:13.757Z,28.86
2023-05-20T12:12:13.783Z,28.88
2023-05-20T12:13:13.816Z,28.84
2023-05-20T12:14:13.733Z,28.72
2023-05-20T12:15:13.709Z,28.63
2023-05-20T12:16:13.757Z,28.64
2023-05-20T12:17:13.711Z,28.52
2023-05-20T12:18:13.677Z,28.47
2023-05-20T12:19:13.755Z,28.48
2023-05-20T12:20:13.781Z,28.47
2023-05-20T12:21:13.651Z,28.49
2023-05-20T12:22:13.673Z,28.41
2023-05-20T12:23:13.632Z,28.45
2023-05-20T12:24:13.664Z,28.45
2023-05-20T12:25:13.643Z,28.49
2023-05-20T12:26:13.594Z,28.56
2023-05-20T12:27:13.574Z,28.62
2023-05-20T12:28:13.607Z,28.69
2023-05-20T12:29:13.575Z,28.64
2023-05-20T12:30:13.540Z,28.70
2023-05-20T12:31:13.614Z,28.75
2023-05-20T12:32:13.557Z,28.79
2023-05-20T12:33:13.515Z,28.72
2023-05-20T12:34:13.512Z,28.79
2023-05-20T12:35:13.539Z,28.78
2023-05-20T12:36:13.537Z,28.79
2023-05-20T12:37:13.490Z,28.75
2023-05-20T12:38:13.463Z,28.94
2023-05-20T12:39:13.441Z,28.89
2023-05-20T12:40:13.460Z,28.91
2023-05-20T12:41:13.437Z,28.75
2023-05-20T12:42:13.438Z,28.88
2023-05-20T12:43:13.444Z,28.79
2023-05-20T12:44:13.405Z,28.91
2023-05-20T12:45:13.397Z,28.91
2023-05-20T12:46:13.358Z,28.96
2023-05-20T12:47:13.450Z,28.93
2023-05-20T12:48:13.477Z,28.89
2023-05-20T12:49:13.349Z,28.94
2023-05-20T12:50:13.318Z,29.01
2023-05-20T12:51:13.305Z,29.02
2023-05-20T12:52:21.928Z,29.04
2023-05-20T12:53:14.275Z,28.98